Brookville, Indiana
Current Conditions -  °F | °C
As of 9:35 PM on Wednesday 22 Oct 2014 (Local Time) from KI67 Reporting Station
Clear Clear  
Wind Chill: 43°   Ceiling: Unl
Heat Index: 43°   Visibility: 10mi
Dew Point: 37°   Wind: 3mph
Humidity: 81%   Direction: 50°NE
Pressure: 30.28"   Gusts: NA
Location:  39.42°N, 85.01°W
Report Text: KI67 230135Z AUTO 05003KT 10SM CLR 06/03 A3028 RMK AO1
Loading
Personal Weather Stations






























Interactive Weather Map
Tropical Storm Tracking
New forecast layout! Learn more

10-Day Weather Forecast

Advertisements
Track Severe Weather on mobile